createdAt,value
2022-10-18T00:00:17.667Z,46.20
2022-10-18T00:02:44.623Z,32.92
2022-10-18T00:05:11.946Z,50.60
2022-10-18T00:07:38.910Z,45.40
2022-10-18T00:10:06.453Z,34.70
2022-10-18T00:12:35.659Z,33.80
2022-10-18T00:15:03.827Z,30.80
2022-10-18T00:17:31.154Z,30.33
2022-10-18T00:19:58.330Z,29.98
2022-10-18T00:22:25.573Z,37.13
2022-10-18T00:24:52.576Z,35.00
2022-10-18T00:27:19.615Z,41.05
2022-10-18T00:29:46.637Z,35.88
2022-10-18T00:32:13.724Z,55.13
2022-10-18T00:34:40.619Z,51.63
2022-10-18T00:37:07.772Z,35.75
2022-10-18T00:39:34.700Z,37.00
2022-10-18T00:42:01.619Z,47.70
2022-10-18T00:44:28.447Z,29.50
2022-10-18T00:47:07.499Z,35.42
2022-10-18T00:49:35.716Z,38.30
2022-10-18T00:52:19.411Z,37.10
2022-10-18T00:54:48.489Z,36.97
2022-10-18T00:57:16.089Z,35.63
2022-10-18T00:59:43.716Z,28.15
2022-10-18T01:02:11.004Z,34.50
2022-10-18T01:04:38.037Z,29.35
2022-10-18T01:07:23.135Z,33.65
2022-10-18T01:09:53.012Z,34.35
2022-10-18T01:12:49.553Z,30.70
2022-10-18T01:15:34.047Z,30.98
2022-10-18T01:18:16.041Z,30.50
2022-10-18T01:20:58.704Z,27.08
2022-10-18T01:24:03.138Z,33.25
2022-10-18T01:26:41.998Z,49.08
2022-10-18T01:29:21.564Z,39.42
2022-10-18T01:31:53.464Z,30.77
2022-10-18T01:34:27.490Z,40.72
2022-10-18T01:36:57.105Z,34.40
2022-10-18T01:39:31.328Z,40.63
2022-10-18T01:41:59.520Z,46.40
2022-10-18T01:44:29.487Z,31.67
2022-10-18T01:46:58.365Z,54.28
2022-10-18T01:49:26.208Z,47.17
2022-10-18T01:51:53.427Z,34.08
2022-10-18T01:54:34.478Z,36.53
2022-10-18T01:57:41.608Z,54.90
2022-10-18T02:00:26.582Z,31.17
2022-10-18T02:03:12.419Z,47.25
2022-10-18T02:05:54.389Z,42.28
2022-10-18T02:08:37.623Z,30.88
2022-10-18T02:11:09.443Z,34.13
2022-10-18T02:13:42.968Z,29.30
2022-10-18T02:16:22.901Z,31.50
2022-10-18T02:19:00.597Z,56.33
2022-10-18T02:21:29.584Z,35.22
2022-10-18T02:23:58.390Z,48.35
2022-10-18T02:26:25.586Z,33.05
2022-10-18T02:28:52.734Z,33.67
2022-10-18T02:31:33.087Z,42.78
2022-10-18T02:34:22.764Z,46.55
2022-10-18T02:36:55.870Z,33.10
2022-10-18T02:39:29.204Z,49.30
2022-10-18T02:41:57.581Z,42.10
2022-10-18T02:44:24.581Z,37.92
2022-10-18T02:46:51.576Z,31.08
2022-10-18T02:49:18.525Z,25.45
2022-10-18T02:51:45.426Z,46.20
2022-10-18T02:54:12.312Z,42.83
2022-10-18T02:56:39.193Z,61.58
2022-10-18T02:59:07.457Z,38.88
2022-10-18T03:01:36.309Z,30.05
2022-10-18T03:04:04.161Z,38.70
2022-10-18T03:06:31.566Z,41.40
2022-10-18T03:08:58.582Z,30.27
2022-10-18T03:11:25.576Z,35.67
2022-10-18T03:13:52.383Z,33.38
2022-10-18T03:16:19.350Z,30.52
2022-10-18T03:18:46.276Z,31.70
2022-10-18T03:21:13.468Z,37.50
2022-10-18T03:23:42.260Z,41.35
2022-10-18T03:26:09.892Z,54.58
2022-10-18T03:28:36.812Z,32.17
2022-10-18T03:31:04.765Z,42.47
2022-10-18T03:33:32.323Z,27.33
2022-10-18T03:35:59.234Z,42.50
2022-10-18T03:38:26.342Z,31.40
2022-10-18T03:40:53.304Z,24.73
2022-10-18T03:43:20.195Z,24.58
2022-10-18T03:45:47.243Z,31.63
2022-10-18T03:48:14.354Z,36.72
2022-10-18T03:50:41.309Z,38.17
2022-10-18T03:53:08.233Z,32.45
2022-10-18T03:55:35.385Z,30.90
2022-10-18T03:58:02.306Z,31.45
2022-10-18T04:00:29.310Z,36.10
2022-10-18T04:02:56.288Z,35.58
2022-10-18T04:05:24.282Z,27.08
2022-10-18T04:07:51.327Z,38.42
2022-10-18T04:10:18.776Z,38.42
2022-10-18T04:12:45.685Z,30.40
2022-10-18T04:15:12.698Z,30.77
2022-10-18T04:17:39.598Z,32.13
2022-10-18T04:20:07.117Z,38.03
2022-10-18T04:22:34.011Z,26.02
2022-10-18T04:25:01.303Z,28.10
2022-10-18T04:27:28.201Z,33.15
2022-10-18T04:29:55.082Z,28.10
2022-10-18T04:32:22.050Z,29.10
2022-10-18T04:34:48.990Z,25.45
2022-10-18T04:37:15.863Z,25.35
2022-10-18T04:39:49.858Z,25.67
2022-10-18T04:42:20.071Z,34.83
2022-10-18T04:44:47.019Z,36.35
2022-10-18T04:47:13.944Z,25.40
2022-10-18T04:49:41.017Z,29.50
2022-10-18T04:52:08.125Z,29.30
2022-10-18T04:54:35.350Z,23.75
2022-10-18T04:57:02.291Z,28.92
2022-10-18T04:59:29.212Z,26.23
2022-10-18T05:01:56.254Z,27.98
2022-10-18T05:04:23.244Z,28.45
2022-10-18T05:06:50.211Z,22.95
2022-10-18T05:09:17.253Z,22.60
2022-10-18T05:11:44.173Z,24.20
2022-10-18T05:14:11.065Z,22.83
2022-10-18T05:16:38.057Z,25.33
2022-10-18T05:19:06.023Z,22.95
2022-10-18T05:21:33.692Z,21.27
2022-10-18T05:24:00.646Z,19.75
2022-10-18T05:26:27.978Z,19.13
2022-10-18T05:28:55.262Z,22.40
2022-10-18T05:31:22.237Z,23.58
2022-10-18T05:33:49.134Z,18.73
2022-10-18T05:36:16.291Z,17.65
2022-10-18T05:38:44.019Z,18.67
2022-10-18T05:41:12.238Z,20.85
2022-10-18T05:43:40.162Z,15.82
2022-10-18T05:46:13.734Z,18.42
2022-10-18T05:48:43.106Z,15.90
2022-10-18T05:51:09.966Z,18.05
2022-10-18T05:53:38.049Z,17.45
2022-10-18T05:56:06.277Z,28.27
2022-10-18T05:58:33.283Z,15.88
2022-10-18T06:01:04.805Z,17.17
2022-10-18T06:03:32.295Z,21.48
2022-10-18T06:06:07.768Z,17.95
2022-10-18T06:08:35.461Z,21.88
2022-10-18T06:11:10.347Z,34.83
2022-10-18T06:13:47.687Z,18.20
2022-10-18T06:16:16.644Z,19.92
2022-10-18T06:18:43.654Z,18.45
2022-10-18T06:21:10.571Z,17.40
2022-10-18T06:23:37.411Z,15.98
2022-10-18T06:26:07.187Z,18.25
2022-10-18T06:28:38.653Z,15.93
2022-10-18T06:31:06.447Z,18.42
2022-10-18T06:33:34.511Z,23.35
2022-10-18T06:36:04.628Z,18.83
2022-10-18T06:38:31.674Z,17.55
2022-10-18T06:41:00.001Z,19.25
2022-10-18T06:43:27.413Z,22.77
2022-10-18T06:45:55.189Z,19.65
2022-10-18T06:48:22.796Z,16.30
2022-10-18T06:50:58.300Z,16.52
2022-10-18T06:53:30.678Z,20.38
2022-10-18T06:56:06.843Z,12.70
2022-10-18T06:58:35.295Z,13.48
2022-10-18T07:01:09.620Z,14.73
2022-10-18T07:03:36.881Z,14.02
2022-10-18T07:06:05.870Z,14.98
2022-10-18T07:08:33.414Z,13.18
2022-10-18T07:11:00.743Z,11.70
2022-10-18T07:13:33.066Z,12.63
2022-10-18T07:16:11.684Z,11.38
2022-10-18T07:18:43.812Z,9.40
2022-10-18T07:21:13.345Z,9.45
2022-10-18T07:23:42.591Z,9.50
2022-10-18T07:26:29.353Z,9.98
2022-10-18T07:29:08.540Z,6.80
2022-10-18T07:31:36.353Z,8.02
2022-10-18T07:34:07.430Z,6.43
2022-10-18T07:36:34.739Z,7.97
2022-10-18T07:39:01.703Z,6.90
2022-10-18T07:41:29.228Z,6.68
2022-10-18T07:43:56.184Z,5.57
2022-10-18T07:46:23.302Z,5.75
2022-10-18T07:48:50.425Z,5.65
2022-10-18T07:51:18.992Z,4.25
2022-10-18T07:53:46.298Z,5.07
2022-10-18T07:56:17.166Z,4.43
2022-10-18T07:58:45.182Z,4.43
2022-10-18T08:01:13.385Z,4.43
2022-10-18T08:03:43.291Z,5.28
2022-10-18T08:06:13.136Z,5.43
2022-10-18T08:08:40.889Z,5.60
2022-10-18T08:11:26.367Z,5.85
2022-10-18T08:13:54.102Z,6.38
2022-10-18T08:16:24.348Z,5.28
2022-10-18T08:18:51.650Z,4.50
2022-10-18T08:21:20.762Z,4.57
2022-10-18T08:23:48.474Z,5.15
2022-10-18T08:26:19.081Z,3.58
2022-10-18T08:28:53.928Z,4.22
2022-10-18T08:31:31.043Z,3.78
2022-10-18T08:33:57.993Z,3.88
2022-10-18T08:36:25.446Z,2.97
2022-10-18T08:38:52.440Z,2.83
2022-10-18T08:41:22.056Z,3.25
2022-10-18T08:44:07.463Z,3.72
2022-10-18T08:46:37.298Z,2.80
2022-10-18T08:49:05.589Z,3.63
2022-10-18T08:51:46.533Z,3.50
2022-10-18T08:54:29.192Z,2.83
2022-10-18T08:57:14.624Z,4.25
2022-10-18T08:59:42.117Z,2.92
2022-10-18T09:02:23.780Z,3.38
2022-10-18T09:05:21.800Z,3.60
2022-10-18T09:08:09.569Z,2.08
2022-10-18T09:11:02.982Z,1.80
2022-10-18T09:13:51.564Z,3.85
2022-10-18T09:16:28.385Z,1.90
2022-10-18T09:19:12.070Z,2.05
2022-10-18T09:21:54.050Z,2.72
2022-10-18T09:24:20.782Z,2.88
2022-10-18T09:26:53.613Z,2.38
2022-10-18T09:29:56.120Z,2.88
2022-10-18T09:32:22.961Z,2.60
2022-10-18T09:34:57.412Z,2.75
2022-10-18T09:37:27.187Z,2.10
2022-10-18T09:40:03.162Z,3.60
2022-10-18T09:42:41.266Z,3.75
2022-10-18T09:45:29.056Z,1.70
2022-10-18T09:48:22.673Z,2.55
2022-10-18T09:50:57.961Z,2.33
2022-10-18T09:53:39.829Z,2.50
2022-10-18T09:56:22.876Z,4.00
2022-10-18T09:58:51.479Z,3.05
2022-10-18T10:01:27.103Z,2.03
2022-10-18T10:03:54.046Z,3.95
2022-10-18T10:06:25.586Z,2.45
2022-10-18T10:09:08.132Z,3.50
2022-10-18T10:11:38.153Z,2.58
2022-10-18T10:14:09.214Z,2.97
2022-10-18T10:16:45.187Z,2.47
2022-10-18T10:19:58.758Z,3.00
2022-10-18T10:22:36.004Z,1.80
2022-10-18T10:25:04.292Z,3.53
2022-10-18T10:27:43.990Z,3.08
2022-10-18T10:30:30.546Z,2.97
2022-10-18T10:32:57.915Z,2.42
2022-10-18T10:35:55.556Z,1.98
2022-10-18T10:38:30.832Z,2.83
2022-10-18T10:40:58.406Z,2.78
2022-10-18T10:43:39.142Z,2.78
2022-10-18T10:46:13.650Z,2.90
2022-10-18T10:49:00.621Z,1.88
2022-10-18T10:51:40.637Z,3.85
2022-10-18T10:54:15.967Z,3.08
2022-10-18T10:57:02.656Z,2.97
2022-10-18T10:59:43.578Z,2.70
2022-10-18T11:02:20.119Z,2.80
2022-10-18T11:04:57.267Z,1.85
2022-10-18T11:07:39.631Z,4.20
2022-10-18T11:10:11.483Z,2.28
2022-10-18T11:13:04.732Z,3.45
2022-10-18T11:15:41.640Z,2.65
2022-10-18T11:18:18.014Z,2.40
2022-10-18T11:21:01.248Z,2.25
2022-10-18T11:23:32.267Z,2.13
2022-10-18T11:26:11.761Z,2.13
2022-10-18T11:28:57.497Z,2.30
2022-10-18T11:31:40.186Z,2.10
2022-10-18T11:34:31.093Z,2.53
2022-10-18T11:37:27.726Z,3.15
2022-10-18T11:40:17.738Z,2.38
2022-10-18T11:42:57.768Z,3.17
2022-10-18T11:45:51.889Z,1.88
2022-10-18T11:48:54.503Z,1.77
2022-10-18T11:51:55.995Z,2.83
2022-10-18T11:54:41.814Z,4.18
2022-10-18T11:57:17.714Z,1.83
2022-10-18T12:00:11.898Z,2.55
2022-10-18T12:02:53.796Z,2.10
2022-10-18T12:05:23.931Z,2.20
2022-10-18T12:08:07.324Z,2.45
2022-10-18T12:10:52.563Z,2.50
2022-10-18T12:13:34.973Z,2.20
2022-10-18T12:16:05.259Z,4.07
2022-10-18T12:18:32.994Z,1.85
2022-10-18T12:21:01.058Z,3.10
2022-10-18T12:23:47.396Z,2.15
2022-10-18T12:26:15.118Z,2.47
2022-10-18T12:28:57.498Z,2.78
2022-10-18T12:31:53.504Z,1.90
2022-10-18T12:34:23.773Z,2.83
2022-10-18T12:37:16.969Z,1.92
2022-10-18T12:40:05.474Z,1.40
2022-10-18T12:42:40.193Z,2.47
2022-10-18T12:45:27.017Z,1.52
2022-10-18T12:47:58.514Z,2.63
2022-10-18T12:50:35.054Z,2.17
2022-10-18T12:53:09.941Z,2.10
2022-10-18T12:55:39.445Z,2.13
2022-10-18T12:58:29.813Z,2.17
2022-10-18T13:01:01.220Z,3.35
2022-10-18T13:03:37.230Z,1.60
2022-10-18T13:06:06.564Z,1.83
2022-10-18T13:08:45.890Z,2.35
2022-10-18T13:11:12.893Z,2.33
2022-10-18T13:14:01.388Z,3.38
2022-10-18T13:16:40.061Z,3.10
2022-10-18T13:19:27.382Z,1.60
2022-10-18T13:22:19.443Z,1.92
2022-10-18T13:24:54.850Z,2.75
2022-10-18T13:27:40.157Z,2.30
2022-10-18T13:30:44.683Z,2.63
2022-10-18T13:35:52.211Z,3.10
2022-10-18T13:38:45.828Z,2.85
2022-10-18T13:41:17.180Z,3.20
2022-10-18T13:43:53.536Z,2.38
2022-10-18T13:46:33.272Z,2.95
2022-10-18T13:49:34.543Z,3.38
2022-10-18T13:52:19.789Z,2.65
2022-10-18T13:54:49.477Z,2.90
2022-10-18T13:57:47.673Z,2.45
2022-10-18T14:00:32.135Z,2.17
2022-10-18T14:03:51.383Z,2.35
2022-10-18T14:06:22.686Z,1.48
2022-10-18T14:09:32.921Z,2.08
2022-10-18T14:12:35.295Z,2.22
2022-10-18T14:15:34.457Z,2.25
2022-10-18T14:18:15.074Z,2.78
2022-10-18T14:21:01.236Z,2.13
2022-10-18T14:23:40.771Z,3.47
2022-10-18T14:26:08.843Z,2.78
2022-10-18T14:28:54.898Z,2.35
2022-10-18T14:31:22.476Z,3.13
2022-10-18T14:33:57.696Z,2.70
2022-10-18T14:36:40.059Z,2.55
2022-10-18T14:39:17.093Z,2.47
2022-10-18T14:41:53.250Z,2.72
2022-10-18T14:44:26.467Z,2.63
2022-10-18T14:47:02.701Z,3.17
2022-10-18T14:49:30.382Z,1.80
2022-10-18T14:52:00.391Z,1.38
2022-10-18T14:54:34.120Z,1.90
2022-10-18T14:59:32.374Z,2.47
2022-10-18T15:02:12.276Z,1.85
2022-10-18T15:04:39.334Z,3.83
2022-10-18T15:07:13.286Z,1.85
2022-10-18T15:12:08.131Z,2.60
2022-10-18T15:14:37.860Z,2.25
2022-10-18T15:17:19.866Z,2.35
2022-10-18T15:20:01.790Z,2.60
2022-10-18T15:22:33.366Z,2.58
2022-10-18T15:25:17.036Z,1.50
2022-10-18T15:27:52.478Z,2.10
2022-10-18T15:30:28.917Z,3.30
2022-10-18T15:33:01.394Z,2.38
2022-10-18T15:35:31.688Z,2.10
2022-10-18T15:38:21.214Z,1.45
2022-10-18T15:40:48.312Z,2.90
2022-10-18T15:43:24.501Z,1.42
2022-10-18T15:46:06.755Z,1.17
2022-10-18T15:48:40.561Z,2.40
2022-10-18T15:51:13.160Z,1.83
2022-10-18T15:53:49.326Z,1.50
2022-10-18T15:56:31.203Z,1.95
2022-10-18T15:58:59.967Z,2.15
2022-10-18T16:01:35.134Z,2.20
2022-10-18T16:04:07.878Z,1.27
2022-10-18T16:06:38.747Z,1.33
2022-10-18T16:09:05.914Z,3.95
2022-10-18T16:11:33.011Z,1.83
2022-10-18T16:14:00.674Z,2.08
2022-10-18T16:16:29.217Z,1.95
2022-10-18T16:18:57.726Z,1.23
2022-10-18T16:21:31.679Z,2.03
2022-10-18T16:26:27.257Z,0.93
2022-10-18T16:28:55.108Z,2.05
2022-10-18T16:31:28.093Z,0.70
2022-10-18T16:33:56.074Z,2.13
2022-10-18T16:36:26.017Z,2.03
2022-10-18T16:38:55.081Z,3.22
2022-10-18T16:41:25.187Z,1.45
2022-10-18T16:43:52.091Z,2.28
2022-10-18T16:46:21.792Z,1.30
2022-10-18T16:48:50.450Z,1.92
2022-10-18T16:51:18.040Z,2.65
2022-10-18T16:53:45.127Z,1.52
2022-10-18T16:56:18.574Z,1.45
2022-10-18T16:58:46.393Z,2.45
2022-10-18T17:01:19.008Z,2.00
2022-10-18T17:03:46.872Z,1.50
2022-10-18T17:06:23.151Z,2.13
2022-10-18T17:08:50.991Z,2.10
2022-10-18T17:11:18.826Z,1.60
2022-10-18T17:13:45.860Z,1.27
2022-10-18T17:19:02.785Z,2.38
2022-10-18T17:21:30.579Z,1.67
2022-10-18T17:24:05.939Z,1.73
2022-10-18T17:26:33.759Z,2.63
2022-10-18T17:29:06.499Z,1.88
2022-10-18T17:31:33.659Z,1.92
2022-10-18T17:34:01.903Z,3.15
2022-10-18T17:36:31.452Z,1.60
2022-10-18T17:38:59.196Z,1.42
2022-10-18T17:41:26.309Z,1.48
2022-10-18T17:43:53.387Z,1.58
2022-10-18T17:46:20.694Z,1.55
2022-10-18T17:48:47.666Z,2.05
2022-10-18T17:51:16.621Z,2.22
2022-10-18T17:53:43.835Z,3.00
2022-10-18T17:56:12.848Z,2.20
2022-10-18T17:58:40.260Z,2.38
2022-10-18T18:01:10.215Z,2.15
2022-10-18T18:03:37.221Z,3.33
2022-10-18T18:06:13.566Z,2.47
2022-10-18T18:08:40.455Z,1.73
2022-10-18T18:11:07.540Z,2.45
2022-10-18T18:13:34.789Z,2.55
2022-10-18T18:16:17.719Z,1.45
2022-10-18T18:18:45.642Z,2.25
2022-10-18T18:21:13.103Z,3.25
2022-10-18T18:23:40.141Z,2.85
2022-10-18T18:26:07.202Z,2.40
2022-10-18T18:28:35.972Z,2.13
2022-10-18T18:31:13.541Z,2.58
2022-10-18T18:33:40.473Z,3.25
2022-10-18T18:36:08.368Z,3.15
2022-10-18T18:38:36.976Z,3.75
2022-10-18T18:41:16.047Z,1.98
2022-10-18T18:43:45.939Z,2.33
2022-10-18T18:46:13.303Z,2.17
2022-10-18T18:48:41.030Z,2.58
2022-10-18T18:51:13.071Z,1.85
2022-10-18T18:53:41.132Z,1.88
2022-10-18T18:56:10.505Z,2.53
2022-10-18T18:58:39.113Z,2.42
2022-10-18T19:01:15.044Z,2.10
2022-10-18T19:03:42.907Z,1.77
2022-10-18T19:06:14.273Z,1.27
2022-10-18T19:08:41.920Z,1.73
2022-10-18T19:11:09.479Z,1.73
2022-10-18T19:13:36.803Z,1.35
2022-10-18T19:16:24.059Z,3.03
2022-10-18T19:18:57.592Z,1.83
2022-10-18T19:21:27.511Z,2.05
2022-10-18T19:23:56.090Z,1.65
2022-10-18T19:26:33.378Z,2.15
2022-10-18T19:29:03.749Z,2.13
2022-10-18T19:31:30.825Z,2.92
2022-10-18T19:34:00.310Z,2.40
2022-10-18T19:36:28.667Z,3.10
2022-10-18T19:38:56.270Z,1.75
2022-10-18T19:41:27.925Z,1.98
2022-10-18T19:43:57.626Z,1.83
2022-10-18T19:46:28.053Z,1.93
2022-10-18T19:48:59.481Z,2.30
2022-10-18T19:51:28.379Z,3.45
2022-10-18T19:53:56.708Z,2.58
2022-10-18T19:56:25.046Z,2.88
2022-10-18T19:58:52.320Z,1.55
2022-10-18T20:01:22.070Z,1.95
2022-10-18T20:03:49.205Z,1.33
2022-10-18T20:06:16.961Z,1.65
2022-10-18T20:08:44.070Z,2.00
2022-10-18T20:11:15.580Z,1.42
2022-10-18T20:13:43.042Z,1.50
2022-10-18T20:16:12.670Z,2.65
2022-10-18T20:18:39.932Z,2.55
2022-10-18T20:21:07.992Z,2.60
2022-10-18T20:23:39.946Z,3.15
2022-10-18T20:26:10.373Z,2.10
2022-10-18T20:28:38.227Z,2.30
2022-10-18T20:31:17.837Z,2.33
2022-10-18T20:33:46.987Z,3.08
2022-10-18T20:36:19.135Z,1.42
2022-10-18T20:38:47.634Z,3.72
2022-10-18T20:41:20.944Z,2.05
2022-10-18T20:43:53.310Z,2.55
2022-10-18T20:46:21.235Z,1.33
2022-10-18T20:48:53.614Z,1.77
2022-10-18T20:51:21.709Z,2.78
2022-10-18T20:53:49.314Z,2.25
2022-10-18T20:56:20.352Z,1.60
2022-10-18T20:58:52.151Z,1.10
2022-10-18T21:01:25.284Z,1.38
2022-10-18T21:03:54.613Z,1.75
2022-10-18T21:06:24.305Z,1.40
2022-10-18T21:09:15.087Z,1.98
2022-10-18T21:11:44.995Z,1.80
2022-10-18T21:14:14.483Z,1.50
2022-10-18T21:16:41.685Z,2.15
2022-10-18T21:19:13.909Z,2.97
2022-10-18T21:21:46.569Z,1.90
2022-10-18T21:24:14.165Z,1.40
2022-10-18T21:26:41.054Z,1.20
2022-10-18T21:29:08.224Z,2.03
2022-10-18T21:31:39.332Z,1.67
2022-10-18T21:34:12.816Z,1.48
2022-10-18T21:36:40.424Z,1.73
2022-10-18T21:39:11.967Z,1.38
2022-10-18T21:41:42.824Z,3.47
2022-10-18T21:44:11.297Z,1.85
2022-10-18T21:46:46.829Z,1.58
2022-10-18T21:49:14.693Z,1.63
2022-10-18T21:51:41.606Z,0.93
2022-10-18T21:54:12.689Z,1.92
2022-10-18T21:56:40.099Z,2.08
2022-10-18T21:59:07.743Z,1.48
2022-10-18T22:01:37.457Z,1.73
2022-10-18T22:04:07.435Z,2.47
2022-10-18T22:06:36.351Z,1.55
2022-10-18T22:09:07.263Z,1.90
2022-10-18T22:11:37.382Z,1.65
2022-10-18T22:14:04.445Z,1.58
2022-10-18T22:16:31.616Z,1.23
2022-10-18T22:19:00.841Z,1.67
2022-10-18T22:21:28.690Z,1.77
2022-10-18T22:23:57.201Z,2.05
2022-10-18T22:26:29.993Z,1.73
2022-10-18T22:28:59.772Z,2.53
2022-10-18T22:31:29.749Z,1.40
2022-10-18T22:34:01.617Z,1.85
2022-10-18T22:36:30.182Z,1.70
2022-10-18T22:39:00.324Z,1.55
2022-10-18T22:41:27.234Z,1.45
2022-10-18T22:43:56.457Z,1.40
2022-10-18T22:46:26.291Z,1.60
2022-10-18T22:48:53.601Z,2.85
2022-10-18T22:51:20.727Z,1.73
2022-10-18T22:53:47.623Z,3.28
2022-10-18T22:56:20.038Z,2.17
2022-10-18T22:58:48.156Z,1.80
2022-10-18T23:01:20.805Z,3.05
2022-10-18T23:03:53.014Z,2.25
2022-10-18T23:06:27.503Z,2.72
2022-10-18T23:08:56.067Z,2.08
2022-10-18T23:11:23.905Z,2.20
2022-10-18T23:13:51.343Z,2.08
2022-10-18T23:16:19.912Z,2.53
2022-10-18T23:18:58.469Z,2.05
2022-10-18T23:21:28.099Z,2.38
2022-10-18T23:23:56.536Z,2.50
2022-10-18T23:26:27.037Z,3.75
2022-10-18T23:28:55.069Z,2.95
2022-10-18T23:31:27.508Z,2.92
2022-10-18T23:33:56.679Z,2.95
2022-10-18T23:36:24.535Z,2.00
2022-10-18T23:38:51.707Z,2.35
2022-10-18T23:41:19.590Z,1.80
2022-10-18T23:43:47.328Z,2.63
2022-10-18T23:46:16.451Z,2.83
2022-10-18T23:48:44.013Z,1.83
2022-10-18T23:51:11.478Z,2.25
2022-10-18T23:53:39.097Z,2.80
2022-10-18T23:56:10.089Z,3.22
2022-10-18T23:58:38.860Z,1.55
